Time;durP1;ratioP1;P1;durP2;ratioP2;P2;SDS_P1;SDS_P2;PMS_P1;PMS_P2;Temp;Humidity;BMP_temperature;BMP_pressure;BME280_temperature;BME280_humidity;BME280_pressure;Samples;Min_cycle;Max_cycle;Signal;HPM_P1;HPM_P2
2023/04/05 00:01:57;;;;;;;26.67;10.57;;;2.30;89.20;;;;;;4993502;28;20999;-60
2023/04/05 00:04:24;;;;;;;28.27;12.13;;;2.20;88.50;;;;;;4998317;28;20491;-60
2023/04/05 00:06:52;;;;;;;31.83;11.80;;;2.20;88.70;;;;;;4990028;28;20999;-59
2023/04/05 00:09:20;;;;;;;30.63;11.03;;;2.20;88.70;;;;;;4985044;28;20475;-59
2023/04/05 00:11:48;;;;;;;27.60;11.47;;;2.10;88.10;;;;;;4980915;28;20486;-59
2023/04/05 00:14:15;;;;;;;27.27;10.30;;;2.10;89.00;;;;;;4991923;28;20991;-59
2023/04/05 00:16:41;;;;;;;21.50;8.80;;;2.00;89.60;;;;;;5003452;28;20997;-59
2023/04/05 00:19:09;;;;;;;29.90;11.93;;;2.10;90.00;;;;;;5010851;28;20507;-59
2023/04/05 00:21:38;;;;;;;21.27;10.10;;;2.10;89.40;;;;;;5000781;28;20849;-59
2023/04/05 00:24:08;;;;;;;32.17;11.10;;;2.10;89.10;;;;;;4981638;28;20577;-59
2023/04/05 00:26:35;;;;;;;29.07;12.07;;;2.10;89.30;;;;;;5003098;28;20975;-60
2023/04/05 00:29:02;;;;;;;27.50;10.50;;;;;;;;;;4987729;28;21072;-59
2023/04/05 00:31:29;;;;;;;30.57;12.20;;;2.10;88.60;;;;;;5016642;28;20485;-59
2023/04/05 00:33:56;;;;;;;23.20;10.30;;;2.10;88.60;;;;;;5010438;28;20964;-59
2023/04/05 00:36:23;;;;;;;43.47;13.93;;;2.10;88.70;;;;;;4982823;28;20486;-59
2023/04/05 00:38:50;;;;;;;31.07;12.23;;;2.10;88.60;;;;;;4982757;28;20822;-59
2023/04/05 00:41:18;;;;;;;40.43;13.77;;;2.20;88.70;;;;;;5000918;28;20474;-59
2023/04/05 00:43:45;;;;;;;32.63;10.90;;;2.20;88.70;;;;;;5003189;28;21018;-59
2023/04/05 00:46:11;;;;;;;35.67;12.30;;;2.10;88.90;;;;;;5002428;28;21011;-59
2023/04/05 00:48:38;;;;;;;21.13;8.50;;;2.10;88.70;;;;;;5005643;28;20506;-59
2023/04/05 00:51:08;;;;;;;27.50;9.60;;;2.10;89.00;;;;;;5002075;28;20495;-59
2023/04/05 00:53:36;;;;;;;28.17;10.87;;;2.10;89.60;;;;;;5010448;28;20542;-59
2023/04/05 00:56:03;;;;;;;25.80;10.07;;;2.40;90.10;;;;;;4968422;28;20644;-59
2023/04/05 00:58:32;;;;;;;46.47;14.93;;;1.80;90.20;;;;;;4991931;28;20504;-59
2023/04/05 01:01:05;;;;;;;38.00;13.57;;;2.00;90.10;;;;;;4980460;28;20666;-59
2023/04/05 01:03:34;;;;;;;41.93;14.13;;;2.00;90.00;;;;;;4982677;28;20513;-59
2023/04/05 01:06:14;;;;;;;26.53;10.40;;;2.00;89.70;;;;;;4984117;28;20817;-59
2023/04/05 01:08:49;;;;;;;32.90;10.93;;;1.90;89.40;;;;;;4987540;28;20512;-59
2023/04/05 01:11:17;;;;;;;30.83;10.13;;;1.90;89.20;;;;;;4981653;28;20503;-59
2023/04/05 01:13:46;;;;;;;37.60;13.53;;;1.80;88.80;;;;;;4990623;28;20484;-59
2023/04/05 01:16:14;;;;;;;38.37;13.53;;;1.80;88.70;;;;;;5006519;28;20483;-59
2023/04/05 01:18:45;;;;;;;26.77;10.00;;;1.70;89.70;;;;;;4983029;28;20489;-59
2023/04/05 01:21:41;;;;;;;35.93;12.70;;;1.70;90.00;;;;;;4995449;28;20574;-59
2023/04/05 01:24:19;;;;;;;28.70;10.73;;;1.60;90.20;;;;;;4999289;28;20694;-59
2023/04/05 01:27:02;;;;;;;19.37;9.10;;;1.50;90.30;;;;;;4950848;28;20500;-59
2023/04/05 01:30:02;;;;;;;16.80;10.60;;;1.50;90.10;;;;;;4974459;28;20474;-59
2023/04/05 01:32:46;;;;;;;13.80;9.23;;;1.50;90.00;;;;;;4962018;28;21366;-58
2023/04/05 01:35:18;;;;;;;20.37;10.00;;;1.50;90.00;;;;;;4984519;28;20493;-59
2023/04/05 01:37:49;;;;;;;28.03;10.13;;;1.50;90.30;;;;;;5001621;28;20496;-59
2023/04/05 01:40:16;;;;;;;27.67;10.77;;;1.50;90.10;;;;;;5019581;28;20477;-59
2023/04/05 01:42:45;;;;;;;22.07;10.40;;;1.50;90.10;;;;;;4975065;28;20478;-59
2023/04/05 01:45:13;;;;;;;31.87;12.33;;;1.50;90.20;;;;;;4984909;28;20481;-59
2023/04/05 01:47:40;;;;;;;22.27;9.93;;;1.50;90.40;;;;;;4991381;28;20506;-59
2023/04/05 01:50:08;;;;;;;23.70;9.60;;;1.40;90.20;;;;;;4983073;28;20488;-60
2023/04/05 01:52:35;;;;;;;28.73;10.93;;;1.40;90.10;;;;;;4990849;28;20478;-60
2023/04/05 01:55:02;;;;;;;30.63;10.80;;;1.40;90.10;;;;;;4986338;28;20482;-60
2023/04/05 01:57:28;;;;;;;19.77;9.50;;;1.40;90.40;;;;;;4994865;28;20538;-60
2023/04/05 01:59:55;;;;;;;30.30;10.90;;;1.40;90.40;;;;;;4986697;28;20493;-60
2023/04/05 02:02:23;;;;;;;58.43;15.17;;;1.40;90.30;;;;;;4985423;28;20497;-60
2023/04/05 02:04:50;;;;;;;24.30;9.07;;;1.40;90.10;;;;;;5002527;28;20486;-60
2023/04/05 02:07:17;;;;;;;43.90;12.23;;;;;;;;;;4996861;28;20481;-60
2023/04/05 02:09:44;;;;;;;44.37;12.27;;;;;;;;;;4991648;28;20489;-60
2023/04/05 02:12:11;;;;;;;39.27;12.03;;;1.30;90.00;;;;;;4985690;28;20489;-60
2023/04/05 02:14:37;;;;;;;31.27;10.30;;;1.40;90.00;;;;;;5007981;28;20510;-60
2023/04/05 02:17:04;;;;;;;50.30;13.30;;;;;;;;;;4986037;28;20492;-60
2023/04/05 02:19:39;;;;;;;40.93;12.23;;;1.30;90.30;;;;;;4996011;28;20525;-60
2023/04/05 02:22:06;;;;;;;47.87;12.57;;;1.20;90.30;;;;;;4984172;28;20481;-60
2023/04/05 02:24:33;;;;;;;54.37;14.13;;;1.30;90.40;;;;;;4998282;28;20518;-60
2023/04/05 02:27:01;;;;;;;58.17;13.83;;;;;;;;;;4986332;28;20497;-59
2023/04/05 02:29:27;;;;;;;52.63;14.30;;;1.30;90.30;;;;;;4986546;28;20688;-59
2023/04/05 02:31:54;;;;;;;38.17;11.60;;;1.30;90.10;;;;;;4985557;28;20486;-59
2023/04/05 02:34:22;;;;;;;70.10;15.30;;;1.20;90.10;;;;;;4991107;28;20509;-58
2023/04/05 02:36:51;;;;;;;55.30;12.80;;;1.30;90.00;;;;;;4975562;28;20900;-59
2023/04/05 02:39:18;;;;;;;40.57;10.17;;;1.30;89.90;;;;;;4980367;28;20486;-59
2023/04/05 02:41:45;;;;;;;37.30;10.10;;;;;;;;;;4988564;28;20485;-60
2023/04/05 02:44:13;;;;;;;71.30;13.73;;;;;;;;;;4984633;28;20485;-60
2023/04/05 02:46:40;;;;;;;58.77;11.40;;;;;;;;;;4985128;28;20485;-60
2023/04/05 02:49:07;;;;;;;48.07;11.87;;;;;;;;;;4993610;28;20580;-60
2023/04/05 02:51:34;;;;;;;58.10;12.47;;;;;;;;;;4972265;28;20485;-60
2023/04/05 02:54:03;;;;;;;52.80;12.13;;;0.80;90.40;;;;;;4989922;28;20481;-60
2023/04/05 02:56:30;;;;;;;80.00;15.37;;;;;;;;;;4967195;28;20499;-60
2023/04/05 02:58:57;;;;;;;46.37;11.57;;;;;;;;;;4987736;28;20477;-60
2023/04/05 03:01:24;;;;;;;84.07;17.03;;;;;;;;;;4977473;28;20481;-59
2023/04/05 03:03:51;;;;;;;69.33;14.57;;;;;;;;;;4995544;28;20485;-59
2023/04/05 03:06:19;;;;;;;59.47;12.83;;;;;;;;;;4984525;28;20497;-60
2023/04/05 03:08:47;;;;;;;45.17;12.30;;;;;;;;;;4993946;28;20486;-60
2023/04/05 03:11:16;;;;;;;58.07;13.37;;;0.70;90.70;;;;;;4983231;28;20525;-59
2023/04/05 03:13:43;;;;;;;50.20;13.07;;;;;;;;;;4986516;28;20490;-59
2023/04/05 03:16:11;;;;;;;42.67;11.60;;;;;;;;;;4993809;28;21090;-60
2023/04/05 03:18:38;;;;;;;30.23;11.30;;;0.80;90.40;;;;;;4995576;28;20962;-59
2023/04/05 03:21:05;;;;;;;43.03;12.40;;;;;;;;;;5018794;28;20620;-59
2023/04/05 03:23:32;;;;;;;54.40;14.70;;;0.80;90.70;;;;;;4987526;28;20491;-60
2023/04/05 03:26:01;;;;;;;29.27;10.83;;;0.80;91.00;;;;;;5009295;28;20836;-59
2023/04/05 03:28:31;;;;;;;52.60;15.17;;;0.90;91.00;;;;;;4989027;28;20830;-59
2023/04/05 03:30:58;;;;;;;28.57;10.17;;;0.90;90.70;;;;;;4985106;28;20824;-59
2023/04/05 03:33:24;;;;;;;48.30;15.10;;;0.90;90.50;;;;;;4988886;28;20475;-60
2023/04/05 03:35:51;;;;;;;24.10;10.30;;;1.00;90.40;;;;;;5012101;28;20714;-60
2023/04/05 03:38:18;;;;;;;24.57;10.00;;;1.00;90.20;;;;;;5002515;28;20962;-60
2023/04/05 03:40:45;;;;;;;22.47;9.43;;;1.00;90.30;;;;;;5005917;28;20517;-59
2023/04/05 03:43:12;;;;;;;34.70;12.40;;;1.00;90.40;;;;;;5016753;28;20477;-60
2023/04/05 03:45:40;;;;;;;22.47;10.17;;;1.00;90.20;;;;;;5003094;28;20480;-59
2023/04/05 03:48:07;;;;;;;25.43;10.63;;;0.90;90.30;;;;;;5006571;28;20508;-60
2023/04/05 03:50:33;;;;;;;27.47;11.50;;;0.90;90.20;;;;;;4990855;28;20482;-59
2023/04/05 03:53:00;;;;;;;15.77;8.40;;;0.90;90.60;;;;;;5019670;28;20496;-59
2023/04/05 03:55:27;;;;;;;26.33;10.93;;;0.90;90.70;;;;;;5003371;28;20483;-60
2023/04/05 03:57:54;;;;;;;22.00;10.53;;;0.90;90.50;;;;;;4997399;28;21431;-59
2023/04/05 04:00:22;;;;;;;37.77;14.03;;;0.90;90.20;;;;;;5005746;28;20539;-60
2023/04/05 04:02:52;;;;;;;19.10;10.03;;;0.90;90.30;;;;;;5014033;28;20483;-60
2023/04/05 04:05:19;;;;;;;29.00;12.40;;;0.80;90.10;;;;;;4996102;28;20862;-60
2023/04/05 04:07:47;;;;;;;18.10;9.10;;;0.80;90.00;;;;;;4998050;28;20475;-59
2023/04/05 04:10:16;;;;;;;27.00;11.90;;;0.70;90.40;;;;;;5019077;28;21063;-59
2023/04/05 04:12:43;;;;;;;17.83;9.57;;;0.60;90.60;;;;;;5025498;28;20492;-60
2023/04/05 04:15:11;;;;;;;24.90;11.37;;;0.70;90.90;;;;;;5004332;28;20477;-60
2023/04/05 04:17:39;;;;;;;24.80;10.27;;;0.60;90.80;;;;;;4998651;28;20801;-60
2023/04/05 04:20:09;;;;;;;22.63;11.33;;;0.60;90.80;;;;;;5013096;28;20582;-60
2023/04/05 04:22:39;;;;;;;13.70;8.40;;;0.60;90.60;;;;;;5015604;28;20507;-60
2023/04/05 04:25:09;;;;;;;26.40;11.83;;;0.70;90.50;;;;;;5005066;28;20599;-60
2023/04/05 04:27:39;;;;;;;27.70;10.50;;;0.60;90.40;;;;;;5023914;28;21045;-60
2023/04/05 04:30:11;;;;;;;26.30;12.93;;;0.60;90.40;;;;;;4988111;28;20489;-60
2023/04/05 04:32:51;;;;;;;18.57;9.70;;;0.60;90.20;;;;;;5000163;28;21000;-60
2023/04/05 04:35:23;;;;;;;26.47;12.40;;;0.60;90.30;;;;;;5004621;28;20498;-60
2023/04/05 04:37:53;;;;;;;26.57;12.40;;;0.60;90.20;;;;;;4993602;28;20691;-60
2023/04/05 04:40:21;;;;;;;37.53;15.47;;;0.60;90.00;;;;;;5004179;28;20492;-60
2023/04/05 04:42:49;;;;;;;27.90;12.23;;;0.60;90.00;;;;;;5002499;28;20845;-59
2023/04/05 04:45:17;;;;;;;27.53;12.90;;;0.50;90.10;;;;;;5018148;28;20483;-59
2023/04/05 04:47:43;;;;;;;24.30;12.90;;;0.60;90.10;;;;;;4975040;28;20551;-59
2023/04/05 04:50:11;;;;;;;25.73;11.70;;;0.50;90.10;;;;;;4986688;28;20488;-59
2023/04/05 04:52:40;;;;;;;29.90;11.20;;;0.50;90.10;;;;;;4998237;28;20512;-59
2023/04/05 04:55:08;;;;;;;31.63;13.93;;;0.50;90.00;;;;;;4975979;28;20857;-59
2023/04/05 04:57:35;;;;;;;27.43;13.50;;;0.40;89.80;;;;;;4999155;28;20480;-60
2023/04/05 05:00:04;;;;;;;36.53;12.07;;;0.40;90.00;;;;;;4981425;28;21017;-59
2023/04/05 05:02:33;;;;;;;41.63;16.63;;;0.30;90.10;;;;;;5006658;28;20559;-59
2023/04/05 05:04:59;;;;;;;31.83;13.17;;;0.30;90.00;;;;;;4996062;28;20920;-59
2023/04/05 05:07:26;;;;;;;40.93;15.80;;;0.30;90.10;;;;;;4984783;28;20619;-60
2023/04/05 05:09:54;;;;;;;29.83;15.90;;;0.30;90.30;;;;;;5008449;28;20497;-59
2023/04/05 05:12:22;;;;;;;37.30;17.17;;;0.30;90.20;;;;;;4982357;28;20523;-59
2023/04/05 05:14:49;;;;;;;25.90;12.53;;;0.30;90.40;;;;;;4993749;28;20485;-59
2023/04/05 05:17:15;;;;;;;28.70;13.13;;;0.30;90.60;;;;;;5004515;28;20587;-59
2023/04/05 05:19:42;;;;;;;28.63;13.20;;;0.30;90.70;;;;;;4990831;28;21417;-59
2023/04/05 05:22:09;;;;;;;24.30;11.13;;;0.30;90.90;;;;;;4978826;28;20575;-60
2023/04/05 05:24:36;;;;;;;23.97;12.33;;;0.30;90.90;;;;;;4996763;28;20493;-60
2023/04/05 05:27:04;;;;;;;25.80;12.20;;;0.40;90.70;;;;;;4984474;28;20847;-60
2023/04/05 05:29:31;;;;;;;32.87;14.37;;;0.40;90.50;;;;;;4984992;28;20486;-60
2023/04/05 05:31:58;;;;;;;33.63;13.80;;;0.30;90.40;;;;;;4990555;28;21626;-60
2023/04/05 05:34:25;;;;;;;39.83;16.43;;;0.30;90.60;;;;;;5001793;28;20503;-60
2023/04/05 05:36:52;;;;;;;29.97;12.70;;;0.40;90.40;;;;;;4986287;28;20832;-60
2023/04/05 05:39:19;;;;;;;33.60;15.70;;;0.40;90.30;;;;;;4987005;28;20499;-60
2023/04/05 05:41:46;;;;;;;31.80;15.20;;;0.40;90.10;;;;;;4999593;28;20477;-60
2023/04/05 05:44:14;;;;;;;32.60;12.87;;;0.40;90.30;;;;;;4989536;28;21116;-60
2023/04/05 05:46:41;;;;;;;24.90;12.07;;;0.40;90.20;;;;;;4985957;28;20497;-60
2023/04/05 05:49:07;;;;;;;27.53;12.67;;;0.40;90.10;;;;;;4991531;28;20786;-61
2023/04/05 05:51:34;;;;;;;32.60;12.90;;;0.40;90.20;;;;;;5003298;28;20492;-61
2023/04/05 05:54:01;;;;;;;23.13;11.67;;;0.40;90.50;;;;;;4976051;28;20745;-60
2023/04/05 05:56:28;;;;;;;30.90;15.03;;;0.40;90.80;;;;;;4995236;28;20488;-60
2023/04/05 05:58:54;;;;;;;26.60;12.07;;;0.50;91.20;;;;;;4989178;28;20572;-60
2023/04/05 06:01:26;;;;;;;30.10;15.57;;;0.50;91.30;;;;;;4983383;28;20536;-60
2023/04/05 06:03:53;;;;;;;18.33;11.17;;;0.60;91.50;;;;;;4989944;28;20488;-60
2023/04/05 06:06:20;;;;;;;28.40;11.40;;;1.20;92.50;;;;;;5009834;28;20481;-60
2023/04/05 06:08:48;;;;;;;20.97;12.23;;;1.70;92.60;;;;;;4985035;28;20486;-60
2023/04/05 06:11:18;;;;;;;22.57;15.00;;;2.20;92.40;;;;;;5017304;28;20504;-60
2023/04/05 06:13:45;;;;;;;17.53;12.57;;;3.00;92.00;;;;;;4988392;28;20478;-60
2023/04/05 06:16:12;;;;;;;27.20;14.77;;;3.50;91.70;;;;;;4987555;28;20485;-61
2023/04/05 06:18:40;;;;;;;18.83;13.40;;;;;;;;;;4977411;28;20478;-60
2023/04/05 06:21:07;;;;;;;23.03;15.30;;;4.90;90.80;;;;;;4981374;28;20488;-61
2023/04/05 06:23:34;;;;;;;18.00;12.73;;;5.50;90.30;;;;;;5006774;28;20479;-61
2023/04/05 06:26:01;;;;;;;19.70;11.80;;;;;;;;;;4957316;28;20493;-61
2023/04/05 06:28:28;;;;;;;21.70;14.23;;;7.10;87.90;;;;;;4999255;28;20493;-61
2023/04/05 06:30:57;;;;;;;12.40;9.47;;;7.80;87.60;;;;;;4985538;28;20482;-61
2023/04/05 06:33:24;;;;;;;13.87;11.80;;;8.80;84.10;;;;;;4984749;28;20497;-61
2023/04/05 06:35:52;;;;;;;20.70;11.33;;;9.40;83.20;;;;;;4999029;28;20482;-61
2023/04/05 06:38:19;;;;;;;16.33;11.07;;;9.80;80.50;;;;;;4982339;28;20484;-61
2023/04/05 06:40:46;;;;;;;13.00;9.03;;;10.50;78.80;;;;;;4969369;28;20479;-61
2023/04/05 06:43:12;;;;;;;10.53;9.40;;;10.80;76.80;;;;;;4997864;28;20484;-61
2023/04/05 06:45:39;;;;;;;12.13;9.77;;;11.10;75.50;;;;;;4986895;28;20509;-61
2023/04/05 06:48:06;;;;;;;12.60;10.63;;;11.40;74.10;;;;;;4987285;28;20903;-61
2023/04/05 06:50:33;;;;;;;16.30;9.70;;;11.70;75.50;;;;;;4985783;28;20473;-62
2023/04/05 06:53:02;;;;;;;14.90;8.97;;;12.10;75.10;;;;;;4978849;28;20862;-61
2023/04/05 06:55:30;;;;;;;17.73;11.00;;;12.80;73.30;;;;;;5003042;28;20482;-61
2023/04/05 06:57:56;;;;;;;11.73;9.80;;;13.30;73.00;;;;;;4995165;28;20469;-62
2023/04/05 07:00:23;;;;;;;12.37;9.70;;;13.80;71.90;;;;;;4991338;28;20479;-62
2023/04/05 07:02:50;;;;;;;16.03;10.20;;;14.30;70.10;;;;;;4989731;28;20482;-62
2023/04/05 07:05:17;;;;;;;18.33;10.47;;;14.60;70.00;;;;;;5005062;28;20742;-62
2023/04/05 07:07:46;;;;;;;10.10;9.10;;;14.90;69.50;;;;;;5001704;28;21040;-62
2023/04/05 07:10:17;;;;;;;17.10;10.00;;;15.20;68.60;;;;;;4971259;28;20984;-62
2023/04/05 07:12:51;;;;;;;10.47;9.37;;;15.40;67.80;;;;;;5002310;28;20488;-62
2023/04/05 07:15:18;;;;;;;13.80;10.43;;;15.50;67.50;;;;;;4991532;28;21614;-62
2023/04/05 07:17:45;;;;;;;15.40;9.37;;;15.50;66.60;;;;;;5000784;28;20496;-62
2023/04/05 07:20:13;;;;;;;10.70;9.57;;;15.40;66.90;;;;;;5001288;28;20558;-62
2023/04/05 07:22:39;;;;;;;9.17;8.10;;;15.30;66.10;;;;;;5001652;28;20496;-62
2023/04/05 07:25:08;;;;;;;18.57;9.37;;;15.20;66.80;;;;;;5014506;28;20468;-63
2023/04/05 07:27:36;;;;;;;9.13;8.17;;;15.10;66.80;;;;;;4978711;28;20576;-62
2023/04/05 07:30:04;;;;;;;10.77;8.70;;;15.00;67.60;;;;;;4993933;28;20886;-62
2023/04/05 07:32:30;;;;;;;10.07;9.07;;;14.80;67.70;;;;;;4980316;28;20512;-62
2023/04/05 07:34:57;;;;;;;11.60;8.80;;;14.80;67.70;;;;;;4995065;28;20534;-62
2023/04/05 07:37:26;;;;;;;9.97;9.17;;;14.70;68.50;;;;;;4983620;28;20662;-62
2023/04/05 07:39:52;;;;;;;14.07;9.17;;;14.50;67.70;;;;;;4971880;28;20905;-63
2023/04/05 07:42:20;;;;;;;22.80;9.17;;;14.50;67.80;;;;;;4964349;28;21490;-62
2023/04/05 07:44:48;;;;;;;9.17;7.60;;;14.40;68.70;;;;;;4987376;28;20880;-61
2023/04/05 07:47:14;;;;;;;8.87;7.97;;;14.30;68.20;;;;;;4995552;28;20500;-62
2023/04/05 07:49:41;;;;;;;12.27;9.03;;;14.20;69.00;;;;;;4997466;28;20694;-62
2023/04/05 07:52:08;;;;;;;14.43;9.20;;;14.10;69.60;;;;;;5013577;28;20472;-62
2023/04/05 07:54:37;;;;;;;11.57;9.03;;;14.10;68.20;;;;;;4985338;28;20488;-62
2023/04/05 07:57:04;;;;;;;10.83;8.93;;;14.00;67.90;;;;;;4981154;28;20577;-62
2023/04/05 07:59:31;;;;;;;10.10;9.03;;;13.80;68.30;;;;;;5010438;28;20863;-63
2023/04/05 08:01:59;;;;;;;14.33;9.27;;;13.60;69.20;;;;;;4981141;28;20481;-62
2023/04/05 08:04:26;;;;;;;14.17;12.47;;;13.40;69.20;;;;;;4999318;28;20530;-62
2023/04/05 08:06:52;;;;;;;13.40;8.20;;;13.30;68.30;;;;;;5000795;28;20834;-62
2023/04/05 08:09:19;;;;;;;14.93;9.80;;;13.10;66.00;;;;;;4989589;28;20481;-63
2023/04/05 08:11:46;;;;;;;9.87;7.63;;;12.90;66.50;;;;;;5011118;28;20484;-62
2023/04/05 08:14:13;;;;;;;11.03;8.90;;;12.70;68.30;;;;;;5004005;28;20481;-62
2023/04/05 08:16:39;;;;;;;14.80;8.90;;;12.70;67.10;;;;;;4975291;28;20868;-62
2023/04/05 08:19:07;;;;;;;15.80;11.13;;;12.60;67.50;;;;;;5003708;28;20516;-62
2023/04/05 08:21:34;;;;;;;17.03;10.40;;;12.40;67.70;;;;;;4989777;28;20479;-62
2023/04/05 08:24:02;;;;;;;11.27;8.93;;;12.40;67.20;;;;;;5003161;28;20513;-62
2023/04/05 08:26:28;;;;;;;19.00;12.90;;;12.20;68.20;;;;;;4986788;28;20495;-62
2023/04/05 08:28:55;;;;;;;15.47;10.50;;;12.10;67.40;;;;;;5009067;28;20961;-62
2023/04/05 08:31:22;;;;;;;16.20;12.70;;;12.10;66.80;;;;;;5014359;28;20492;-62
2023/04/05 08:33:48;;;;;;;11.63;9.17;;;12.00;64.20;;;;;;5016715;28;20484;-62
2023/04/05 08:36:16;;;;;;;14.53;10.57;;;12.20;68.90;;;;;;4999215;28;20755;-62
2023/04/05 08:38:43;;;;;;;13.97;9.97;;;12.20;66.20;;;;;;5006505;28;20488;-62
2023/04/05 08:41:17;;;;;;;13.13;9.93;;;12.40;65.50;;;;;;5008364;28;20479;-62
2023/04/05 08:43:54;;;;;;;30.80;10.23;;;12.40;64.20;;;;;;5008696;28;20507;-62
2023/04/05 08:46:22;;;;;;;19.57;11.90;;;12.50;65.80;;;;;;5012680;28;20847;-62
2023/04/05 08:48:49;;;;;;;16.10;11.10;;;;;;;;;;4990923;28;20480;-62
2023/04/05 08:51:20;;;;;;;19.07;13.40;;;12.50;64.00;;;;;;4997078;28;20624;-62
2023/04/05 08:53:47;;;;;;;10.40;8.23;;;12.70;66.20;;;;;;4979800;28;20522;-62
2023/04/05 08:56:17;;;;;;;16.13;9.27;;;12.70;64.30;;;;;;5003300;28;21026;-62
2023/04/05 08:58:57;;;;;;;11.60;9.57;;;12.50;63.80;;;;;;4990418;28;20864;-63
2023/04/05 09:01:27;;;;;;;20.07;13.03;;;12.50;64.80;;;;;;5000671;28;20550;-62
2023/04/05 09:03:56;;;;;;;13.20;9.63;;;12.60;65.40;;;;;;4974553;28;20485;-62
2023/04/05 09:06:26;;;;;;;18.70;13.50;;;12.70;65.40;;;;;;4988109;28;20501;-62
2023/04/05 09:08:53;;;;;;;25.13;9.57;;;12.90;65.20;;;;;;5004589;28;20982;-62
2023/04/05 09:11:20;;;;;;;16.60;12.10;;;13.10;66.20;;;;;;4980170;28;20489;-62
2023/04/05 09:13:47;;;;;;;14.43;10.17;;;13.20;64.00;;;;;;4996034;28;20532;-62
2023/04/05 09:16:14;;;;;;;32.27;11.30;;;13.50;64.10;;;;;;4979240;28;20745;-62
2023/04/05 09:18:41;;;;;;;27.77;10.93;;;13.60;64.20;;;;;;4990582;28;20595;-63
2023/04/05 09:21:09;;;;;;;13.00;10.10;;;13.50;62.40;;;;;;4981620;28;21034;-63
2023/04/05 09:23:37;;;;;;;9.60;7.90;;;13.30;63.00;;;;;;4976585;28;20932;-63
2023/04/05 09:26:17;;;;;;;17.77;10.40;;;13.30;64.40;;;;;;4975087;28;20485;-62
2023/04/05 09:28:44;;;;;;;16.27;10.07;;;13.00;61.70;;;;;;5007702;28;20902;-62
2023/04/05 09:31:30;;;;;;;13.80;10.80;;;13.00;63.00;;;;;;5000487;28;20500;-62
2023/04/05 09:33:58;;;;;;;11.10;9.10;;;13.10;64.50;;;;;;4990834;28;20508;-62
2023/04/05 09:36:27;;;;;;;17.57;12.20;;;13.40;64.60;;;;;;5013913;28;20889;-63
2023/04/05 09:39:04;;;;;;;15.83;9.77;;;13.50;64.70;;;;;;4988644;28;20871;-63
2023/04/05 09:41:31;;;;;;;22.63;12.10;;;13.40;65.20;;;;;;4958182;28;20911;-62
2023/04/05 09:43:58;;;;;;;13.73;10.40;;;13.50;65.90;;;;;;4995138;28;20488;-62
2023/04/05 09:46:31;;;;;;;21.70;12.93;;;13.60;64.80;;;;;;4999307;28;20491;-62
2023/04/05 09:48:57;;;;;;;19.70;9.97;;;13.40;61.20;;;;;;4976078;28;21242;-62
2023/04/05 09:51:32;;;;;;;18.97;13.10;;;13.60;65.10;;;;;;4998687;28;20492;-62
2023/04/05 09:54:03;;;;;;;16.27;10.47;;;13.70;63.50;;;;;;4974084;28;21008;-62
2023/04/05 09:56:31;;;;;;;16.40;12.13;;;13.80;63.20;;;;;;4994228;28;20498;-61
2023/04/05 09:59:03;;;;;;;11.30;8.07;;;13.60;59.60;;;;;;4982131;28;20480;-61
2023/04/05 10:01:31;;;;;;;17.43;9.50;;;13.70;64.10;;;;;;4993638;28;20550;-61
2023/04/05 10:03:59;;;;;;;21.67;9.00;;;13.60;62.30;;;;;;5016013;28;20563;-61
2023/04/05 10:06:36;;;;;;;21.00;12.50;;;13.40;60.90;;;;;;4999885;28;20504;-62
2023/04/05 10:09:05;;;;;;;14.07;9.77;;;13.50;62.70;;;;;;4987052;28;21095;-62
2023/04/05 10:11:33;;;;;;;16.73;12.50;;;13.60;63.60;;;;;;4979683;28;20859;-62
2023/04/05 10:14:02;;;;;;;10.43;8.50;;;13.80;60.90;;;;;;4999609;28;20482;-62
2023/04/05 10:16:32;;;;;;;16.90;11.63;;;13.70;60.90;;;;;;4988171;28;20486;-62
2023/04/05 10:18:59;;;;;;;13.63;9.47;;;13.60;59.80;;;;;;4994092;28;20488;-62
2023/04/05 10:21:29;;;;;;;12.50;7.77;;;13.50;62.00;;;;;;4992959;28;20536;-62
2023/04/05 10:24:10;;;;;;;8.70;7.50;;;13.40;62.30;;;;;;4991160;28;21948;-62
2023/04/05 10:26:43;;;;;;;11.30;8.50;;;13.50;62.60;;;;;;4990184;28;20588;-61
2023/04/05 10:29:14;;;;;;;14.80;11.00;;;13.60;60.90;;;;;;5006015;28;20903;-62
2023/04/05 10:31:51;;;;;;;14.30;8.83;;;13.60;61.30;;;;;;4971027;28;20485;-63
2023/04/05 10:34:21;;;;;;;13.77;10.00;;;;;;;;;;4981393;28;20513;-63
2023/04/05 10:36:53;;;;;;;9.93;7.83;;;13.80;61.50;;;;;;4973361;28;20627;-63
2023/04/05 10:39:29;;;;;;;19.40;11.07;;;13.70;59.00;;;;;;5009798;28;20489;-63
2023/04/05 10:42:01;;;;;;;7.57;6.20;;;13.90;63.20;;;;;;4989257;28;21290;-63
2023/04/05 10:44:31;;;;;;;16.73;11.13;;;14.10;62.70;;;;;;4991760;28;20869;-63
2023/04/05 10:46:59;;;;;;;11.53;8.30;;;13.90;59.50;;;;;;4979465;28;20789;-63
2023/04/05 10:49:33;;;;;;;19.67;12.73;;;13.80;58.30;;;;;;4976381;28;20489;-62
2023/04/05 10:52:00;;;;;;;19.13;9.47;;;13.20;55.70;;;;;;4947361;28;20504;-62
2023/04/05 10:54:29;;;;;;;21.30;14.40;;;13.20;59.90;;;;;;4998888;28;20493;-63
2023/04/05 10:56:57;;;;;;;12.73;8.97;;;13.60;65.10;;;;;;4986897;28;20491;-63
2023/04/05 10:59:24;;;;;;;21.03;13.47;;;13.80;61.80;;;;;;5007350;28;20889;-62
2023/04/05 11:01:52;;;;;;;16.13;10.73;;;13.30;56.90;;;;;;5000878;28;20515;-62
2023/04/05 11:04:20;;;;;;;25.40;13.80;;;13.30;57.80;;;;;;4952804;28;20881;-62
2023/04/05 11:06:47;;;;;;;13.07;9.07;;;13.50;61.10;;;;;;4985999;28;20530;-62
2023/04/05 11:09:17;;;;;;;14.67;10.27;;;13.60;61.50;;;;;;5011677;28;20565;-62
2023/04/05 11:11:46;;;;;;;23.43;9.00;;;13.70;59.20;;;;;;4976258;28;20496;-62
2023/04/05 11:14:20;;;;;;;14.83;10.20;;;13.90;58.80;;;;;;4998684;28;20477;-62
2023/04/05 11:16:52;;;;;;;17.93;12.90;;;13.80;58.90;;;;;;4974234;28;20582;-62
2023/04/05 11:19:19;;;;;;;17.63;10.47;;;13.90;58.50;;;;;;4956670;28;20755;-62
2023/04/05 11:21:45;;;;;;;13.40;9.00;;;14.10;61.90;;;;;;4977562;28;20504;-62
2023/04/05 11:24:14;;;;;;;12.90;10.10;;;;;;;;;;4969918;28;20852;-62
2023/04/05 11:26:55;;;;;;;10.23;8.33;;;14.60;57.20;;;;;;4990352;28;20492;-62
2023/04/05 11:29:53;;;;;;;24.20;12.83;;;14.10;53.30;;;;;;4990348;28;20892;-63
2023/04/05 11:32:20;;;;;;;16.97;10.00;;;14.00;56.10;;;;;;4935963;28;20476;-63
2023/04/05 11:34:59;;;;;;;15.63;8.93;;;14.20;58.20;;;;;;4971724;28;20497;-63
2023/04/05 11:37:54;;;;;;;36.13;20.40;;;14.30;59.50;;;;;;4956425;28;21020;-62
2023/04/05 11:40:27;;;;;;;18.37;11.63;;;14.50;58.70;;;;;;4981705;28;20570;-63
2023/04/05 11:43:06;;;;;;;14.57;8.67;;;14.70;61.00;;;;;;4992029;28;20473;-63
2023/04/05 11:45:34;;;;;;;22.80;11.80;;;14.80;58.80;;;;;;5005321;28;21230;-62
2023/04/05 11:48:04;;;;;;;14.07;10.00;;;15.10;62.40;;;;;;4991291;28;20575;-63
2023/04/05 11:50:31;;;;;;;26.00;11.73;;;15.30;61.50;;;;;;5015446;28;20476;-63
2023/04/05 11:53:08;;;;;;;11.60;8.40;;;15.50;57.70;;;;;;5001320;28;20480;-63
2023/04/05 11:55:35;;;;;;;16.73;11.07;;;15.60;59.20;;;;;;5013945;28;20469;-63
2023/04/05 11:58:10;;;;;;;14.53;8.23;;;15.90;57.40;;;;;;5013116;28;20501;-64
2023/04/05 12:00:37;;;;;;;16.47;10.73;;;15.30;53.90;;;;;;5019933;28;20992;-63
2023/04/05 12:03:04;;;;;;;12.07;8.03;;;;;;;;;;5013178;28;20489;-63
2023/04/05 12:05:45;;;;;;;18.27;11.73;;;14.40;57.10;;;;;;5004521;28;20508;-63
2023/04/05 12:08:12;;;;;;;11.20;8.27;;;14.60;56.60;;;;;;5014876;28;20753;-64
2023/04/05 12:10:39;;;;;;;16.43;8.20;;;14.10;58.40;;;;;;5016876;28;20480;-63
2023/04/05 12:13:07;;;;;;;14.37;7.77;;;14.10;56.80;;;;;;5014979;28;20530;-63
2023/04/05 12:15:38;;;;;;;15.60;10.53;;;14.10;57.60;;;;;;5006191;28;20749;-63
2023/04/05 12:18:06;;;;;;;15.03;8.43;;;13.90;58.40;;;;;;5006769;28;20517;-62
2023/04/05 12:20:33;;;;;;;12.67;9.17;;;14.00;58.10;;;;;;5007790;28;20603;-62
2023/04/05 12:23:01;;;;;;;12.80;9.67;;;14.20;59.50;;;;;;4981798;28;20811;-63
2023/04/05 12:25:28;;;;;;;15.27;10.27;;;14.40;59.00;;;;;;5005742;28;20484;-62
2023/04/05 12:27:55;;;;;;;12.33;8.50;;;14.80;59.40;;;;;;5022625;28;20477;-62
2023/04/05 12:30:24;;;;;;;11.83;8.63;;;15.10;59.70;;;;;;5010619;28;20491;-62
2023/04/05 12:32:51;;;;;;;11.30;8.90;;;15.40;59.30;;;;;;5016841;28;20488;-63
2023/04/05 12:35:19;;;;;;;9.80;8.70;;;15.60;57.90;;;;;;4977965;28;20493;-63
2023/04/05 12:37:46;;;;;;;13.33;7.13;;;15.80;55.90;;;;;;5006427;28;20625;-63
2023/04/05 12:40:13;;;;;;;9.03;8.00;;;15.90;58.00;;;;;;5016169;28;20489;-63
2023/04/05 12:42:41;;;;;;;12.53;8.20;;;15.90;55.60;;;;;;5008932;28;20504;-62
2023/04/05 12:45:11;;;;;;;15.97;9.80;;;15.80;57.40;;;;;;5012483;28;20574;-63
2023/04/05 12:47:50;;;;;;;10.00;8.63;;;15.60;54.40;;;;;;4968313;28;20515;-62
2023/04/05 12:50:18;;;;;;;11.33;9.70;;;15.50;55.80;;;;;;4975264;28;20563;-62
2023/04/05 12:52:55;;;;;;;10.93;8.37;;;15.80;59.40;;;;;;4987613;28;20611;-62